sensor_id;sensor_type;location;lat;lon;timestamp;pressure;altitude;pressure_sealevel;temperature;humidity
11912;BME280;6016;41.928;25.556;2023-04-24T00:01:57;98959.22;;;13.34;64.27
11912;BME280;6016;41.928;25.556;2023-04-24T00:04:24;98959.22;;;13.34;63.92
11912;BME280;6016;41.928;25.556;2023-04-24T00:06:52;98917.25;;;13.13;64.24
11912;BME280;6016;41.928;25.556;2023-04-24T00:09:22;98950.75;;;13.39;64.26
11912;BME280;6016;41.928;25.556;2023-04-24T00:11:49;98955.75;;;13.42;63.56
11912;BME280;6016;41.928;25.556;2023-04-24T00:14:16;98956.56;;;13.42;63.98
11912;BME280;6016;41.928;25.556;2023-04-24T00:16:43;98954.59;;;13.36;64.06
11912;BME280;6016;41.928;25.556;2023-04-24T00:19:10;98959.81;;;13.11;64.50
11912;BME280;6016;41.928;25.556;2023-04-24T00:21:38;98938.88;;;13.43;64.49
11912;BME280;6016;41.928;25.556;2023-04-24T00:24:06;98796.78;;;12.57;63.64
11912;BME280;6016;41.928;25.556;2023-04-24T00:26:34;98904.38;;;13.26;65.03
11912;BME280;6016;41.928;25.556;2023-04-24T00:29:01;98880.47;;;12.93;64.89
11912;BME280;6016;41.928;25.556;2023-04-24T00:31:27;98948.69;;;13.50;65.10
11912;BME280;6016;41.928;25.556;2023-04-24T00:33:54;98944.56;;;13.56;65.49
11912;BME280;6016;41.928;25.556;2023-04-24T00:36:21;98931.97;;;13.58;65.11
11912;BME280;6016;41.928;25.556;2023-04-24T00:38:48;98920.69;;;13.48;64.69
11912;BME280;6016;41.928;25.556;2023-04-24T00:41:16;98931.63;;;13.53;63.71
11912;BME280;6016;41.928;25.556;2023-04-24T00:43:43;98783.56;;;12.49;63.79
11912;BME280;6016;41.928;25.556;2023-04-24T00:46:10;98935.84;;;13.37;63.99
11912;BME280;6016;41.928;25.556;2023-04-24T00:48:38;98922.75;;;13.28;64.55
11912;BME280;6016;41.928;25.556;2023-04-24T00:51:06;98928.91;;;13.28;64.03
11912;BME280;6016;41.928;25.556;2023-04-24T00:53:33;98853.91;;;12.76;64.24
11912;BME280;6016;41.928;25.556;2023-04-24T00:56:00;98923.91;;;13.17;64.92
11912;BME280;6016;41.928;25.556;2023-04-24T00:58:29;98829.38;;;12.58;65.02
11912;BME280;6016;41.928;25.556;2023-04-24T01:00:56;98924.91;;;13.16;65.80
11912;BME280;6016;41.928;25.556;2023-04-24T01:03:29;98926.75;;;13.23;65.63
11912;BME280;6016;41.928;25.556;2023-04-24T01:05:57;98746.06;;;12.10;64.60
11912;BME280;6016;41.928;25.556;2023-04-24T01:08:25;98887.28;;;13.04;64.97
11912;BME280;6016;41.928;25.556;2023-04-24T01:10:53;98902.03;;;13.06;65.42
11912;BME280;6016;41.928;25.556;2023-04-24T01:13:20;98918.75;;;13.15;65.83
11912;BME280;6016;41.928;25.556;2023-04-24T01:15:49;98907.94;;;13.00;64.98
11912;BME280;6016;41.928;25.556;2023-04-24T01:18:15;98897.19;;;13.02;65.59
11912;BME280;6016;41.928;25.556;2023-04-24T01:20:43;98915.25;;;13.06;65.98
11912;BME280;6016;41.928;25.556;2023-04-24T01:23:13;98906.00;;;13.11;65.92
11912;BME280;6016;41.928;25.556;2023-04-24T01:25:41;98912.28;;;13.09;66.41
11912;BME280;6016;41.928;25.556;2023-04-24T01:28:08;98917.91;;;13.06;65.60
11912;BME280;6016;41.928;25.556;2023-04-24T01:30:35;98914.91;;;13.01;65.77
11912;BME280;6016;41.928;25.556;2023-04-24T01:33:02;98916.72;;;13.01;66.11
11912;BME280;6016;41.928;25.556;2023-04-24T01:35:29;98909.59;;;13.01;65.91
11912;BME280;6016;41.928;25.556;2023-04-24T01:37:56;98906.00;;;13.02;66.65
11912;BME280;6016;41.928;25.556;2023-04-24T01:40:24;98912.41;;;13.00;66.69
11912;BME280;6016;41.928;25.556;2023-04-24T01:42:51;98900.66;;;12.94;66.24
11912;BME280;6016;41.928;25.556;2023-04-24T01:45:18;98882.41;;;12.83;67.06
11912;BME280;6016;41.928;25.556;2023-04-24T01:47:45;98893.16;;;12.81;67.59
11912;BME280;6016;41.928;25.556;2023-04-24T01:50:14;98880.53;;;12.66;67.59
11912;BME280;6016;41.928;25.556;2023-04-24T01:52:41;98841.72;;;12.41;67.18
11912;BME280;6016;41.928;25.556;2023-04-24T01:55:09;98899.63;;;12.87;66.26
11912;BME280;6016;41.928;25.556;2023-04-24T01:57:38;98904.44;;;12.83;67.54
11912;BME280;6016;41.928;25.556;2023-04-24T02:00:06;98891.84;;;12.85;67.78
11912;BME280;6016;41.928;25.556;2023-04-24T02:02:33;98892.66;;;12.86;67.30
11912;BME280;6016;41.928;25.556;2023-04-24T02:05:00;98895.44;;;12.76;67.58
11912;BME280;6016;41.928;25.556;2023-04-24T02:07:28;98899.38;;;12.63;67.33
11912;BME280;6016;41.928;25.556;2023-04-24T02:09:54;98904.50;;;12.65;67.61
11912;BME280;6016;41.928;25.556;2023-04-24T02:12:21;98906.00;;;12.68;67.70
11912;BME280;6016;41.928;25.556;2023-04-24T02:14:50;98819.75;;;12.14;67.55
11912;BME280;6016;41.928;25.556;2023-04-24T02:17:17;98911.81;;;12.71;66.80
11912;BME280;6016;41.928;25.556;2023-04-24T02:19:44;98862.00;;;12.32;67.81
11912;BME280;6016;41.928;25.556;2023-04-24T02:22:11;98908.88;;;12.48;67.65
11912;BME280;6016;41.928;25.556;2023-04-24T02:24:38;98899.22;;;12.38;68.38
11912;BME280;6016;41.928;25.556;2023-04-24T02:27:06;98900.75;;;12.41;67.88
11912;BME280;6016;41.928;25.556;2023-04-24T02:29:32;98903.38;;;12.41;68.55
11912;BME280;6016;41.928;25.556;2023-04-24T02:32:01;98904.66;;;12.37;68.07
11912;BME280;6016;41.928;25.556;2023-04-24T02:34:27;98912.31;;;12.40;69.36
11912;BME280;6016;41.928;25.556;2023-04-24T02:36:54;98887.13;;;12.28;68.19
11912;BME280;6016;41.928;25.556;2023-04-24T02:39:21;98923.25;;;12.45;67.23
11912;BME280;6016;41.928;25.556;2023-04-24T02:41:48;98926.88;;;12.44;67.71
11912;BME280;6016;41.928;25.556;2023-04-24T02:44:15;98910.59;;;12.31;68.50
11912;BME280;6016;41.928;25.556;2023-04-24T02:46:42;98914.94;;;12.14;68.59
11912;BME280;6016;41.928;25.556;2023-04-24T02:49:10;98933.16;;;12.43;68.07
11912;BME280;6016;41.928;25.556;2023-04-24T02:51:37;98929.47;;;12.36;68.63
11912;BME280;6016;41.928;25.556;2023-04-24T02:54:06;98860.72;;;11.91;67.44
11912;BME280;6016;41.928;25.556;2023-04-24T02:56:33;98922.47;;;12.27;68.38
11912;BME280;6016;41.928;25.556;2023-04-24T02:59:00;98908.13;;;12.11;67.89
11912;BME280;6016;41.928;25.556;2023-04-24T03:01:27;98917.34;;;12.25;67.96
11912;BME280;6016;41.928;25.556;2023-04-24T03:03:54;98921.28;;;12.21;68.00
11912;BME280;6016;41.928;25.556;2023-04-24T03:06:22;98919.91;;;12.17;68.98
11912;BME280;6016;41.928;25.556;2023-04-24T03:08:48;98922.06;;;11.77;69.47
11912;BME280;6016;41.928;25.556;2023-04-24T03:11:15;98917.38;;;11.89;68.86
11912;BME280;6016;41.928;25.556;2023-04-24T03:13:42;98922.44;;;11.82;71.03
11912;BME280;6016;41.928;25.556;2023-04-24T03:16:09;98921.22;;;11.76;68.33
11912;BME280;6016;41.928;25.556;2023-04-24T03:18:36;98919.56;;;11.75;69.17
11912;BME280;6016;41.928;25.556;2023-04-24T03:21:03;98870.50;;;11.54;68.45
11912;BME280;6016;41.928;25.556;2023-04-24T03:23:31;98918.44;;;11.96;68.40
11912;BME280;6016;41.928;25.556;2023-04-24T03:25:58;98910.63;;;11.94;67.28
11912;BME280;6016;41.928;25.556;2023-04-24T03:28:25;98868.31;;;11.68;68.48
11912;BME280;6016;41.928;25.556;2023-04-24T03:30:52;98673.84;;;10.60;66.83
11912;BME280;6016;41.928;25.556;2023-04-24T03:33:19;98914.19;;;12.03;67.55
11912;BME280;6016;41.928;25.556;2023-04-24T03:35:45;98925.38;;;11.97;68.09
11912;BME280;6016;41.928;25.556;2023-04-24T03:38:12;98868.16;;;11.51;67.41
11912;BME280;6016;41.928;25.556;2023-04-24T03:40:40;98860.56;;;11.48;68.58
11912;BME280;6016;41.928;25.556;2023-04-24T03:43:07;98924.16;;;11.91;67.89
11912;BME280;6016;41.928;25.556;2023-04-24T03:45:34;98926.19;;;11.79;68.37
11912;BME280;6016;41.928;25.556;2023-04-24T03:48:01;98927.63;;;11.74;69.31
11912;BME280;6016;41.928;25.556;2023-04-24T03:50:28;98925.06;;;11.82;68.03
11912;BME280;6016;41.928;25.556;2023-04-24T03:52:55;98915.19;;;11.84;68.68
11912;BME280;6016;41.928;25.556;2023-04-24T03:55:21;98926.28;;;11.88;69.26
11912;BME280;6016;41.928;25.556;2023-04-24T03:57:49;98924.00;;;11.93;70.28
11912;BME280;6016;41.928;25.556;2023-04-24T04:00:16;98920.84;;;11.89;69.86
11912;BME280;6016;41.928;25.556;2023-04-24T04:02:44;98923.50;;;11.89;69.48
11912;BME280;6016;41.928;25.556;2023-04-24T04:05:10;98932.47;;;11.96;69.20
11912;BME280;6016;41.928;25.556;2023-04-24T04:07:37;98919.03;;;11.90;67.84
11912;BME280;6016;41.928;25.556;2023-04-24T04:10:05;98929.25;;;12.03;68.63
11912;BME280;6016;41.928;25.556;2023-04-24T04:12:33;98896.69;;;11.84;67.35
11912;BME280;6016;41.928;25.556;2023-04-24T04:15:01;98936.41;;;12.10;68.50
11912;BME280;6016;41.928;25.556;2023-04-24T04:17:28;98944.88;;;12.14;68.66
11912;BME280;6016;41.928;25.556;2023-04-24T04:19:55;98941.38;;;12.14;68.98
11912;BME280;6016;41.928;25.556;2023-04-24T04:22:22;98899.03;;;11.69;67.99
11912;BME280;6016;41.928;25.556;2023-04-24T04:24:49;98957.69;;;12.09;68.73
11912;BME280;6016;41.928;25.556;2023-04-24T04:27:16;98961.41;;;12.16;69.54
11912;BME280;6016;41.928;25.556;2023-04-24T04:29:44;98923.97;;;12.03;69.95
11912;BME280;6016;41.928;25.556;2023-04-24T04:32:12;98890.06;;;11.44;69.82
11912;BME280;6016;41.928;25.556;2023-04-24T04:34:39;98774.03;;;10.88;69.68
11912;BME280;6016;41.928;25.556;2023-04-24T04:37:06;98952.41;;;12.09;72.14
11912;BME280;6016;41.928;25.556;2023-04-24T04:39:32;98953.72;;;12.31;71.49
11912;BME280;6016;41.928;25.556;2023-04-24T04:41:59;98952.81;;;12.41;68.82
11912;BME280;6016;41.928;25.556;2023-04-24T04:44:26;98953.00;;;12.47;69.83
11912;BME280;6016;41.928;25.556;2023-04-24T04:46:54;98948.31;;;12.59;71.51
11912;BME280;6016;41.928;25.556;2023-04-24T04:49:23;98922.72;;;12.42;69.84
11912;BME280;6016;41.928;25.556;2023-04-24T04:51:50;98956.94;;;12.70;68.61
11912;BME280;6016;41.928;25.556;2023-04-24T04:54:17;98774.63;;;11.62;68.54
11912;BME280;6016;41.928;25.556;2023-04-24T04:56:44;98957.97;;;12.77;68.02
11912;BME280;6016;41.928;25.556;2023-04-24T04:59:11;98879.53;;;12.33;68.50
11912;BME280;6016;41.928;25.556;2023-04-24T05:01:37;98943.81;;;12.60;68.77
11912;BME280;6016;41.928;25.556;2023-04-24T05:04:04;98936.66;;;12.78;69.70
11912;BME280;6016;41.928;25.556;2023-04-24T05:06:33;98966.28;;;12.82;69.64
11912;BME280;6016;41.928;25.556;2023-04-24T05:08:59;98955.88;;;12.89;69.63
11912;BME280;6016;41.928;25.556;2023-04-24T05:11:26;98868.81;;;12.43;69.48
11912;BME280;6016;41.928;25.556;2023-04-24T05:13:53;98953.28;;;12.97;68.73
11912;BME280;6016;41.928;25.556;2023-04-24T05:16:20;98971.19;;;13.03;67.91
11912;BME280;6016;41.928;25.556;2023-04-24T05:18:47;98965.91;;;13.03;68.92
11912;BME280;6016;41.928;25.556;2023-04-24T05:21:13;98949.09;;;12.86;68.68
11912;BME280;6016;41.928;25.556;2023-04-24T05:23:41;98932.56;;;12.84;69.00
11912;BME280;6016;41.928;25.556;2023-04-24T05:26:08;98955.13;;;13.05;69.26
11912;BME280;6016;41.928;25.556;2023-04-24T05:28:35;98962.59;;;13.09;67.28
11912;BME280;6016;41.928;25.556;2023-04-24T05:31:02;98966.75;;;13.12;68.33
11912;BME280;6016;41.928;25.556;2023-04-24T05:33:29;98943.06;;;13.02;68.13
11912;BME280;6016;41.928;25.556;2023-04-24T05:35:56;98963.16;;;13.21;68.45
11912;BME280;6016;41.928;25.556;2023-04-24T05:38:23;98901.28;;;12.88;68.78
11912;BME280;6016;41.928;25.556;2023-04-24T05:40:51;98964.34;;;13.35;67.92
11912;BME280;6016;41.928;25.556;2023-04-24T05:43:18;98921.75;;;13.20;68.63
11912;BME280;6016;41.928;25.556;2023-04-24T05:45:45;98959.78;;;13.54;68.73
11912;BME280;6016;41.928;25.556;2023-04-24T05:48:11;98969.69;;;13.52;67.83
11912;BME280;6016;41.928;25.556;2023-04-24T05:50:38;98974.03;;;13.53;68.09
11912;BME280;6016;41.928;25.556;2023-04-24T05:53:05;98973.84;;;13.55;69.35
11912;BME280;6016;41.928;25.556;2023-04-24T05:55:33;98777.75;;;12.45;67.27
11912;BME280;6016;41.928;25.556;2023-04-24T05:58:02;98977.88;;;13.59;66.39
11912;BME280;6016;41.928;25.556;2023-04-24T06:00:29;98971.69;;;13.50;66.80
11912;BME280;6016;41.928;25.556;2023-04-24T06:02:56;98974.53;;;13.48;67.42
11912;BME280;6016;41.928;25.556;2023-04-24T06:05:23;98971.47;;;13.43;67.52
11912;BME280;6016;41.928;25.556;2023-04-24T06:07:50;98964.69;;;13.41;67.08
11912;BME280;6016;41.928;25.556;2023-04-24T06:10:16;98967.88;;;13.44;67.40
11912;BME280;6016;41.928;25.556;2023-04-24T06:12:43;98952.84;;;13.53;68.02
11912;BME280;6016;41.928;25.556;2023-04-24T06:15:12;98914.78;;;13.19;67.80
11912;BME280;6016;41.928;25.556;2023-04-24T06:17:39;98909.41;;;13.46;67.43
11912;BME280;6016;41.928;25.556;2023-04-24T06:20:06;98955.50;;;13.86;66.55
11912;BME280;6016;41.928;25.556;2023-04-24T06:22:33;98955.53;;;13.95;66.00
11912;BME280;6016;41.928;25.556;2023-04-24T06:25:00;98952.88;;;13.95;66.67
11912;BME280;6016;41.928;25.556;2023-04-24T06:27:27;98953.53;;;13.88;65.78
11912;BME280;6016;41.928;25.556;2023-04-24T06:29:54;98870.53;;;13.46;66.99
11912;BME280;6016;41.928;25.556;2023-04-24T06:32:23;98844.31;;;13.43;67.00
11912;BME280;6016;41.928;25.556;2023-04-24T06:34:51;98949.38;;;14.19;65.93
11912;BME280;6016;41.928;25.556;2023-04-24T06:37:19;98943.56;;;14.40;66.67
11912;BME280;6016;41.928;25.556;2023-04-24T06:39:46;98919.34;;;14.35;66.62
11912;BME280;6016;41.928;25.556;2023-04-24T06:42:13;98928.28;;;14.51;65.91
11912;BME280;6016;41.928;25.556;2023-04-24T06:44:40;98894.47;;;14.36;65.36
11912;BME280;6016;41.928;25.556;2023-04-24T06:47:07;98931.72;;;14.76;67.07
11912;BME280;6016;41.928;25.556;2023-04-24T06:49:36;98931.00;;;14.99;64.08
11912;BME280;6016;41.928;25.556;2023-04-24T06:52:03;98816.88;;;14.34;63.64
11912;BME280;6016;41.928;25.556;2023-04-24T06:54:30;98865.00;;;14.79;64.04
11912;BME280;6016;41.928;25.556;2023-04-24T06:56:57;98906.50;;;15.12;63.98
11912;BME280;6016;41.928;25.556;2023-04-24T06:59:26;98933.56;;;15.15;64.48
11912;BME280;6016;41.928;25.556;2023-04-24T07:01:53;98884.22;;;14.89;65.49
11912;BME280;6016;41.928;25.556;2023-04-24T07:04:19;98932.94;;;15.37;66.01
11912;BME280;6016;41.928;25.556;2023-04-24T07:06:48;98926.22;;;15.49;65.20
11912;BME280;6016;41.928;25.556;2023-04-24T07:09:16;98923.69;;;15.56;66.33
11912;BME280;6016;41.928;25.556;2023-04-24T07:11:44;98745.78;;;14.53;64.07
11912;BME280;6016;41.928;25.556;2023-04-24T07:14:11;98926.22;;;15.72;65.20
11912;BME280;6016;41.928;25.556;2023-04-24T07:16:37;98925.78;;;15.69;62.98
11912;BME280;6016;41.928;25.556;2023-04-24T07:19:04;98932.50;;;15.80;63.77
11912;BME280;6016;41.928;25.556;2023-04-24T07:21:31;98855.72;;;15.38;60.61
11912;BME280;6016;41.928;25.556;2023-04-24T07:23:59;98927.59;;;15.92;60.92
11912;BME280;6016;41.928;25.556;2023-04-24T07:26:28;98926.44;;;15.94;59.48
11912;BME280;6016;41.928;25.556;2023-04-24T07:28:55;98892.84;;;15.93;61.25
11912;BME280;6016;41.928;25.556;2023-04-24T07:31:22;98917.53;;;16.25;61.35
11912;BME280;6016;41.928;25.556;2023-04-24T07:33:48;98913.69;;;16.43;61.91
11912;BME280;6016;41.928;25.556;2023-04-24T07:36:15;98917.81;;;16.60;61.71
11912;BME280;6016;41.928;25.556;2023-04-24T07:38:44;98913.59;;;16.66;62.46
11912;BME280;6016;41.928;25.556;2023-04-24T07:41:12;98923.06;;;16.69;61.47
11912;BME280;6016;41.928;25.556;2023-04-24T07:43:39;98924.44;;;16.65;62.15
11912;BME280;6016;41.928;25.556;2023-04-24T07:46:06;98925.63;;;16.62;62.07
11912;BME280;6016;41.928;25.556;2023-04-24T07:48:33;98860.88;;;16.31;60.31
11912;BME280;6016;41.928;25.556;2023-04-24T07:51:00;98892.00;;;16.46;59.93
11912;BME280;6016;41.928;25.556;2023-04-24T07:53:27;98896.78;;;16.51;58.42
11912;BME280;6016;41.928;25.556;2023-04-24T07:55:54;98871.53;;;16.62;58.58
11912;BME280;6016;41.928;25.556;2023-04-24T07:58:22;98909.78;;;17.21;59.07
11912;BME280;6016;41.928;25.556;2023-04-24T08:00:49;98924.00;;;17.65;56.64
11912;BME280;6016;41.928;25.556;2023-04-24T08:03:16;98889.50;;;17.41;56.22
11912;BME280;6016;41.928;25.556;2023-04-24T08:05:44;98919.66;;;17.64;56.52
11912;BME280;6016;41.928;25.556;2023-04-24T08:08:11;98917.19;;;17.84;56.56
11912;BME280;6016;41.928;25.556;2023-04-24T08:10:38;98922.84;;;17.96;55.56
11912;BME280;6016;41.928;25.556;2023-04-24T08:13:05;98876.72;;;17.80;56.78
11912;BME280;6016;41.928;25.556;2023-04-24T08:15:33;98922.59;;;18.12;57.14
11912;BME280;6016;41.928;25.556;2023-04-24T08:18:00;98915.78;;;18.10;56.86
11912;BME280;6016;41.928;25.556;2023-04-24T08:20:27;98922.78;;;18.11;57.38
11912;BME280;6016;41.928;25.556;2023-04-24T08:22:54;98871.66;;;17.85;55.89
11912;BME280;6016;41.928;25.556;2023-04-24T08:25:21;98894.13;;;17.98;54.80
11912;BME280;6016;41.928;25.556;2023-04-24T08:27:50;98909.13;;;18.21;51.77
11912;BME280;6016;41.928;25.556;2023-04-24T08:30:17;98900.88;;;18.22;53.74
11912;BME280;6016;41.928;25.556;2023-04-24T08:32:45;98898.84;;;18.24;55.42
11912;BME280;6016;41.928;25.556;2023-04-24T08:35:12;98866.41;;;17.99;54.07
11912;BME280;6016;41.928;25.556;2023-04-24T08:37:39;98884.25;;;17.98;54.08
11912;BME280;6016;41.928;25.556;2023-04-24T08:40:12;98884.19;;;17.92;56.29
11912;BME280;6016;41.928;25.556;2023-04-24T08:42:39;98905.41;;;18.22;56.55
11912;BME280;6016;41.928;25.556;2023-04-24T08:45:08;98890.97;;;18.45;55.46
11912;BME280;6016;41.928;25.556;2023-04-24T08:47:36;98861.41;;;18.46;53.42
11912;BME280;6016;41.928;25.556;2023-04-24T08:50:07;98881.00;;;18.60;54.01
11912;BME280;6016;41.928;25.556;2023-04-24T08:52:34;98819.00;;;18.30;56.24
11912;BME280;6016;41.928;25.556;2023-04-24T08:55:01;98830.28;;;18.67;52.11
11912;BME280;6016;41.928;25.556;2023-04-24T08:57:28;98875.84;;;19.01;52.88
11912;BME280;6016;41.928;25.556;2023-04-24T08:59:58;98868.50;;;19.23;54.13
11912;BME280;6016;41.928;25.556;2023-04-24T09:02:25;98814.56;;;19.06;53.38
11912;BME280;6016;41.928;25.556;2023-04-24T09:04:52;98858.03;;;19.28;52.50
11912;BME280;6016;41.928;25.556;2023-04-24T09:07:22;98824.94;;;19.49;52.11
11912;BME280;6016;41.928;25.556;2023-04-24T09:09:51;98864.25;;;19.89;51.42
11912;BME280;6016;41.928;25.556;2023-04-24T09:12:19;98853.97;;;19.93;51.38
11912;BME280;6016;41.928;25.556;2023-04-24T09:14:45;98856.25;;;20.16;51.13
11912;BME280;6016;41.928;25.556;2023-04-24T09:17:12;98849.63;;;20.19;51.04
11912;BME280;6016;41.928;25.556;2023-04-24T09:19:39;98859.91;;;20.35;51.84
11912;BME280;6016;41.928;25.556;2023-04-24T09:22:07;98850.81;;;20.50;48.76
11912;BME280;6016;41.928;25.556;2023-04-24T09:24:35;98861.69;;;20.62;47.58
11912;BME280;6016;41.928;25.556;2023-04-24T09:27:02;98827.56;;;20.30;49.93
11912;BME280;6016;41.928;25.556;2023-04-24T09:29:29;98832.09;;;20.30;47.83
11912;BME280;6016;41.928;25.556;2023-04-24T09:31:58;98791.56;;;20.06;48.17
11912;BME280;6016;41.928;25.556;2023-04-24T09:34:26;98838.63;;;20.54;50.75
11912;BME280;6016;41.928;25.556;2023-04-24T09:36:54;98809.34;;;20.52;50.68
11912;BME280;6016;41.928;25.556;2023-04-24T09:39:20;98840.19;;;20.82;48.88
11912;BME280;6016;41.928;25.556;2023-04-24T09:41:50;98809.06;;;20.74;49.11
11912;BME280;6016;41.928;25.556;2023-04-24T09:44:18;98703.88;;;20.40;46.78
11912;BME280;6016;41.928;25.556;2023-04-24T09:46:49;98805.00;;;21.36;47.87
11912;BME280;6016;41.928;25.556;2023-04-24T09:49:22;98836.78;;;21.64;48.40
11912;BME280;6016;41.928;25.556;2023-04-24T09:51:50;98839.78;;;21.82;47.91
11912;BME280;6016;41.928;25.556;2023-04-24T09:54:18;98824.97;;;21.98;47.01
11912;BME280;6016;41.928;25.556;2023-04-24T09:56:47;98822.34;;;22.10;49.33
11912;BME280;6016;41.928;25.556;2023-04-24T09:59:17;98819.59;;;22.16;46.79
11912;BME280;6016;41.928;25.556;2023-04-24T10:01:44;98810.63;;;22.04;49.94
11912;BME280;6016;41.928;25.556;2023-04-24T10:04:18;98800.16;;;21.77;49.66
11912;BME280;6016;41.928;25.556;2023-04-24T10:06:46;98810.03;;;22.02;50.03
11912;BME280;6016;41.928;25.556;2023-04-24T10:09:14;98815.72;;;21.68;47.23
11912;BME280;6016;41.928;25.556;2023-04-24T10:11:42;98746.56;;;21.63;49.02
11912;BME280;6016;41.928;25.556;2023-04-24T10:14:12;98791.63;;;22.05;48.88
11912;BME280;6016;41.928;25.556;2023-04-24T10:16:41;98762.00;;;21.94;48.05
11912;BME280;6016;41.928;25.556;2023-04-24T10:19:08;98788.56;;;22.20;51.84
11912;BME280;6016;41.928;25.556;2023-04-24T10:21:35;98788.84;;;22.31;48.13
11912;BME280;6016;41.928;25.556;2023-04-24T10:24:03;98781.25;;;22.28;48.96
11912;BME280;6016;41.928;25.556;2023-04-24T10:26:33;98749.75;;;22.16;49.73
11912;BME280;6016;41.928;25.556;2023-04-24T10:29:01;98771.25;;;22.35;48.37
11912;BME280;6016;41.928;25.556;2023-04-24T10:31:31;98767.75;;;22.53;47.45
11912;BME280;6016;41.928;25.556;2023-04-24T10:34:00;98727.38;;;22.23;48.39
11912;BME280;6016;41.928;25.556;2023-04-24T10:36:28;98742.50;;;22.54;48.58
11912;BME280;6016;41.928;25.556;2023-04-24T10:38:59;98767.06;;;22.58;45.91
11912;BME280;6016;41.928;25.556;2023-04-24T10:41:27;98716.19;;;22.07;46.59
11912;BME280;6016;41.928;25.556;2023-04-24T10:44:06;98756.31;;;22.39;47.92
11912;BME280;6016;41.928;25.556;2023-04-24T10:46:34;98743.03;;;22.44;49.07
11912;BME280;6016;41.928;25.556;2023-04-24T10:49:04;98762.09;;;22.73;48.25
11912;BME280;6016;41.928;25.556;2023-04-24T10:51:48;98761.44;;;22.78;46.82
11912;BME280;6016;41.928;25.556;2023-04-24T10:54:26;98722.31;;;22.45;45.54
11912;BME280;6016;41.928;25.556;2023-04-24T10:56:53;98721.53;;;22.44;45.96
11912;BME280;6016;41.928;25.556;2023-04-24T10:59:27;98727.13;;;22.43;47.46
11912;BME280;6016;41.928;25.556;2023-04-24T11:02:02;98748.69;;;22.85;48.84
11912;BME280;6016;41.928;25.556;2023-04-24T11:04:31;98753.53;;;22.95;48.41
11912;BME280;6016;41.928;25.556;2023-04-24T11:07:00;98713.50;;;22.87;46.86
11912;BME280;6016;41.928;25.556;2023-04-24T11:09:30;98751.47;;;23.21;46.23
11912;BME280;6016;41.928;25.556;2023-04-24T11:12:05;98745.38;;;23.26;45.23
11912;BME280;6016;41.928;25.556;2023-04-24T11:15:00;98745.31;;;23.44;45.61
11912;BME280;6016;41.928;25.556;2023-04-24T11:17:29;98732.47;;;23.35;45.37
11912;BME280;6016;41.928;25.556;2023-04-24T11:20:02;98734.56;;;23.32;46.82
11912;BME280;6016;41.928;25.556;2023-04-24T11:22:33;98708.97;;;22.99;45.84
11912;BME280;6016;41.928;25.556;2023-04-24T11:25:00;98735.91;;;23.23;46.75
11912;BME280;6016;41.928;25.556;2023-04-24T11:27:30;98660.13;;;22.72;50.48
11912;BME280;6016;41.928;25.556;2023-04-24T11:30:03;98723.53;;;23.34;49.46
11912;BME280;6016;41.928;25.556;2023-04-24T11:32:33;98719.56;;;23.49;46.84
11912;BME280;6016;41.928;25.556;2023-04-24T11:35:03;98713.00;;;23.56;48.13
11912;BME280;6016;41.928;25.556;2023-04-24T11:37:35;98714.88;;;23.68;46.62
11912;BME280;6016;41.928;25.556;2023-04-24T11:40:03;98713.56;;;23.82;45.87
11912;BME280;6016;41.928;25.556;2023-04-24T11:42:35;98715.78;;;23.97;46.25
11912;BME280;6016;41.928;25.556;2023-04-24T11:45:07;98674.84;;;23.83;47.48
11912;BME280;6016;41.928;25.556;2023-04-24T11:47:34;98699.50;;;24.04;46.60
11912;BME280;6016;41.928;25.556;2023-04-24T11:50:05;98697.88;;;23.91;45.70
11912;BME280;6016;41.928;25.556;2023-04-24T11:52:33;98656.50;;;23.44;47.01
11912;BME280;6016;41.928;25.556;2023-04-24T11:55:03;98692.19;;;23.64;48.07
11912;BME280;6016;41.928;25.556;2023-04-24T11:57:31;98688.78;;;23.56;47.89
11912;BME280;6016;41.928;25.556;2023-04-24T11:59:59;98687.94;;;23.20;48.15
11912;BME280;6016;41.928;25.556;2023-04-24T12:02:27;98686.81;;;22.73;49.98
11912;BME280;6016;41.928;25.556;2023-04-24T12:04:54;98681.84;;;22.58;50.07
11912;BME280;6016;41.928;25.556;2023-04-24T12:07:23;98678.78;;;22.55;50.57
11912;BME280;6016;41.928;25.556;2023-04-24T12:09:55;98602.91;;;22.10;50.39
11912;BME280;6016;41.928;25.556;2023-04-24T12:12:25;98689.97;;;22.70;50.48
11912;BME280;6016;41.928;25.556;2023-04-24T12:14:54;98647.59;;;22.54;51.00
11912;BME280;6016;41.928;25.556;2023-04-24T12:17:25;98672.47;;;22.49;50.46
11912;BME280;6016;41.928;25.556;2023-04-24T12:19:57;98676.84;;;22.43;50.74
11912;BME280;6016;41.928;25.556;2023-04-24T12:22:26;98676.81;;;22.31;51.62
11912;BME280;6016;41.928;25.556;2023-04-24T12:24:57;98669.63;;;22.13;50.43
11912;BME280;6016;41.928;25.556;2023-04-24T12:27:26;98644.38;;;22.14;49.00
11912;BME280;6016;41.928;25.556;2023-04-24T12:29:53;98647.84;;;22.52;48.42
11912;BME280;6016;41.928;25.556;2023-04-24T12:32:22;98652.81;;;22.79;48.46
11912;BME280;6016;41.928;25.556;2023-04-24T12:34:49;98489.03;;;22.11;49.71
11912;BME280;6016;41.928;25.556;2023-04-24T12:37:16;98637.38;;;23.10;48.09
11912;BME280;6016;41.928;25.556;2023-04-24T12:39:58;98638.00;;;23.36;47.18
11912;BME280;6016;41.928;25.556;2023-04-24T12:42:26;98568.84;;;22.89;46.68
11912;BME280;6016;41.928;25.556;2023-04-24T12:44:56;98626.88;;;23.21;48.81
11912;BME280;6016;41.928;25.556;2023-04-24T12:47:24;98475.19;;;21.84;50.43
11912;BME280;6016;41.928;25.556;2023-04-24T12:49:52;98582.38;;;22.58;49.09
11912;BME280;6016;41.928;25.556;2023-04-24T12:52:20;98540.72;;;22.37;48.94
11912;BME280;6016;41.928;25.556;2023-04-24T12:54:49;98609.31;;;22.82;48.57
11912;BME280;6016;41.928;25.556;2023-04-24T12:57:16;98575.75;;;22.30;49.89
11912;BME280;6016;41.928;25.556;2023-04-24T12:59:43;98469.47;;;21.49;49.88
11912;BME280;6016;41.928;25.556;2023-04-24T13:02:10;98598.78;;;21.96;52.10
11912;BME280;6016;41.928;25.556;2023-04-24T13:04:37;98603.06;;;21.66;53.79